Check out our new BloomSky Weather System.

Active alerts

Houston, TX
  Details for Houston, TX Dense Fog Advisory


Thunder radar  blitzortung!


Rain radar more information rain snow radar


Visit our other weather sites:

Template documentation
and downloads

And another site



Weather Underground History page Text

Daily Summary for February 18, 2017 Units:  English    Metric   Both
« Previous Day
Next Day »
Daily Weekly Monthly Yearly Custom
  High: Low: Average:
Temperature: 82.8 °F 55.6 °F 70.2 °F
Dew Point: 69.4 °F 54.5 °F 63.4 °F
Humidity: 98 % 49 % 82 %
Wind Speed: 11.0 mph 0.0 mph 3 mph
Wind Gust: 16.0 mph - -
Wind:- - SSE
Pressure: 29.86 in 29.75 in -
Precipitation: 0.00 in    
Historical Graphs
 
 
Tabular Data for February 18, 2017
Time Temperature Dew Point Pressure Wind Wind Speed Wind Gust Humidity Rainfall Rate (Hourly)
00:00 57.7 °F 56.3 °F 29.81 in Calm   4.0 mph 95 % 0.00 in
00:05 57.7 °F 56.3 °F 29.81 in SE 1.0 mph 4.0 mph 95 % 0.00 in
00:10 57.7 °F 56.3 °F 29.81 in SE 2.0 mph 4.0 mph 95 % 0.00 in
00:15 57.7 °F 56.3 °F 29.81 in Calm   4.0 mph 95 % 0.00 in
00:20 57.6 °F 56.1 °F 29.80 in Calm   4.0 mph 95 % 0.00 in
00:25 57.6 °F 56.1 °F 29.80 in Calm   4.0 mph 95 % 0.00 in
00:30 57.4 °F 55.9 °F 29.80 in Calm   2.0 mph 95 % 0.00 in
00:35 57.4 °F 56.3 °F 29.80 in Calm   2.0 mph 96 % 0.00 in
00:40 57.0 °F 55.9 °F 29.80 in Calm   2.0 mph 96 % 0.00 in
00:45 56.8 °F 55.8 °F 29.80 in Calm   1.0 mph 96 % 0.00 in
00:50 56.8 °F 55.8 °F 29.80 in Calm   1.0 mph 96 % 0.00 in
00:56 56.8 °F 55.8 °F 29.80 in Calm   1.0 mph 96 % 0.00 in
01:01 56.5 °F 55.4 °F 29.80 in Calm   1.0 mph 96 % 0.00 in
01:06 56.5 °F 55.4 °F 29.80 in Calm   1.0 mph 96 % 0.00 in
01:11 56.5 °F 55.4 °F 29.80 in Calm   1.0 mph 96 % 0.00 in
01:16 56.3 °F 55.2 °F 29.80 in Calm   1.0 mph 96 % 0.00 in
01:21 56.1 °F 55.0 °F 29.80 in Calm   1.0 mph 96 % 0.00 in
01:26 55.9 °F 54.9 °F 29.80 in Calm   1.0 mph 96 % 0.00 in
01:31 55.9 °F 54.9 °F 29.80 in Calm   1.0 mph 96 % 0.00 in
01:36 55.8 °F 54.7 °F 29.80 in Calm     96 % 0.00 in
01:41 55.6 °F 54.5 °F 29.80 in Calm     96 % 0.00 in
01:46 55.6 °F 54.5 °F 29.80 in Calm     96 % 0.00 in
01:51 55.8 °F 54.9 °F 29.80 in Calm     97 % 0.00 in
01:56 55.9 °F 55.0 °F 29.80 in Calm     97 % 0.00 in
02:01 56.3 °F 55.4 °F 29.80 in Calm     97 % 0.00 in
02:06 56.7 °F 55.8 °F 29.79 in Calm   1.0 mph 97 % 0.00 in
02:11 57.0 °F 56.1 °F 29.79 in Calm   1.0 mph 97 % 0.00 in
02:16 57.4 °F 56.5 °F 29.79 in Calm   1.0 mph 97 % 0.00 in
02:21 57.6 °F 56.7 °F 29.79 in Calm   1.0 mph 97 % 0.00 in
02:26 57.9 °F 57.4 °F 29.79 in SSE 1.0 mph 2.0 mph 98 % 0.00 in
02:31 58.5 °F 57.9 °F 29.79 in SE 1.0 mph 3.0 mph 98 % 0.00 in
02:36 58.8 °F 58.3 °F 29.79 in SE 1.0 mph 3.0 mph 98 % 0.00 in
02:41 59.2 °F 58.6 °F 29.79 in SSE 1.0 mph 3.0 mph 98 % 0.00 in
02:46 59.4 °F 58.8 °F 29.79 in SE 1.0 mph 3.0 mph 98 % 0.00 in
02:51 59.4 °F 58.8 °F 29.79 in SE 1.0 mph 3.0 mph 98 % 0.00 in
02:56 59.4 °F 58.8 °F 29.79 in SE 1.0 mph 3.0 mph 98 % 0.00 in
03:01 59.5 °F 59.0 °F 29.79 in SE 1.0 mph 3.0 mph 98 % 0.00 in
03:06 59.5 °F 59.0 °F 29.79 in ESE 1.0 mph 3.0 mph 98 % 0.00 in
03:11 59.7 °F 59.2 °F 29.78 in SE 1.0 mph 3.0 mph 98 % 0.00 in
03:16 59.9 °F 59.4 °F 29.78 in Calm   2.0 mph 98 % 0.00 in
03:21 60.1 °F 59.5 °F 29.78 in SE 1.0 mph 2.0 mph 98 % 0.00 in
03:26 60.4 °F 59.9 °F 29.78 in SSE 1.0 mph 4.0 mph 98 % 0.00 in
03:31 60.6 °F 60.1 °F 29.78 in SE 1.0 mph 4.0 mph 98 % 0.00 in
03:36 60.8 °F 60.3 °F 29.78 in SE 3.0 mph 4.0 mph 98 % 0.00 in
03:41 61.0 °F 60.4 °F 29.78 in South 3.0 mph 6.0 mph 98 % 0.00 in
03:46 61.3 °F 60.8 °F 29.78 in SSE 2.0 mph 7.0 mph 98 % 0.00 in
03:52 61.7 °F 61.2 °F 29.78 in South 2.0 mph 8.0 mph 98 % 0.00 in
03:57 61.9 °F 61.3 °F 29.78 in SSE 3.0 mph 8.0 mph 98 % 0.00 in
04:02 62.1 °F 61.5 °F 29.78 in SSE 7.0 mph 9.0 mph 98 % 0.00 in
04:07 62.2 °F 61.7 °F 29.78 in SSE 3.0 mph 10.0 mph 98 % 0.00 in
04:12 62.4 °F 61.9 °F 29.78 in SE 4.0 mph 10.0 mph 98 % 0.00 in
04:17 62.4 °F 61.9 °F 29.77 in SSE 2.0 mph 10.0 mph 98 % 0.00 in
04:22 62.4 °F 61.9 °F 29.78 in SSE 3.0 mph 9.0 mph 98 % 0.00 in
04:27 62.4 °F 61.9 °F 29.77 in SE 3.0 mph 9.0 mph 98 % 0.00 in
04:32 62.6 °F 62.1 °F 29.77 in ESE 2.0 mph 7.0 mph 98 % 0.00 in
04:37 62.6 °F 62.1 °F 29.78 in SE 2.0 mph 7.0 mph 98 % 0.00 in
04:42 62.6 °F 62.1 °F 29.78 in South 1.0 mph 7.0 mph 98 % 0.00 in
04:47 62.6 °F 62.1 °F 29.78 in SSW 4.0 mph 6.0 mph 98 % 0.00 in
04:52 62.8 °F 62.2 °F 29.79 in SSE 2.0 mph 6.0 mph 98 % 0.00 in
04:57 62.8 °F 62.2 °F 29.79 in SSE 3.0 mph 7.0 mph 98 % 0.00 in
05:02 62.8 °F 62.2 °F 29.79 in South 5.0 mph 7.0 mph 98 % 0.00 in
05:07 62.8 °F 62.2 °F 29.79 in SSE 3.0 mph 7.0 mph 98 % 0.00 in
05:12 63.0 °F 62.4 °F 29.79 in South 7.0 mph 7.0 mph 98 % 0.00 in
05:17 63.0 °F 62.4 °F 29.79 in South 2.0 mph 9.0 mph 98 % 0.00 in
05:22 63.0 °F 62.4 °F 29.79 in South 4.0 mph 9.0 mph 98 % 0.00 in
05:27 63.0 °F 62.4 °F 29.79 in SSE 3.0 mph 9.0 mph 98 % 0.00 in
05:32 63.0 °F 62.4 °F 29.79 in SE 2.0 mph 9.0 mph 98 % 0.00 in
05:37 63.0 °F 62.4 °F 29.80 in SSE 4.0 mph 6.0 mph 98 % 0.00 in
05:42 63.0 °F 62.4 °F 29.80 in SSW 4.0 mph 6.0 mph 98 % 0.00 in
05:47 63.0 °F 62.4 °F 29.80 in SE 3.0 mph 9.0 mph 98 % 0.00 in
05:52 63.0 °F 62.4 °F 29.80 in SE 3.0 mph 9.0 mph 98 % 0.00 in
05:57 63.0 °F 62.4 °F 29.80 in SSW 2.0 mph 9.0 mph 98 % 0.00 in
06:02 63.0 °F 62.4 °F 29.80 in SSW 2.0 mph 6.0 mph 98 % 0.00 in
06:07 63.0 °F 62.4 °F 29.80 in South 3.0 mph 6.0 mph 98 % 0.00 in
06:12 62.8 °F 62.2 °F 29.80 in South 2.0 mph 5.0 mph 98 % 0.00 in
06:17 62.8 °F 62.2 °F 29.80 in SE 1.0 mph 5.0 mph 98 % 0.00 in
06:22 62.8 °F 62.2 °F 29.80 in SSW 2.0 mph 5.0 mph 98 % 0.00 in
06:27 62.8 °F 62.2 °F 29.80 in South 2.0 mph 4.0 mph 98 % 0.00 in
06:32 62.8 °F 62.2 °F 29.81 in South 1.0 mph 4.0 mph 98 % 0.00 in
06:37 62.8 °F 62.2 °F 29.81 in South 1.0 mph 3.0 mph 98 % 0.00 in
06:42 62.8 °F 62.2 °F 29.81 in SSE 1.0 mph 3.0 mph 98 % 0.00 in
06:47 63.0 °F 62.4 °F 29.81 in SW 2.0 mph 3.0 mph 98 % 0.00 in
06:52 63.0 °F 62.4 °F 29.81 in SW 3.0 mph 3.0 mph 98 % 0.00 in
06:57 63.0 °F 62.4 °F 29.82 in SSW 2.0 mph 4.0 mph 98 % 0.00 in
07:02 63.0 °F 62.4 °F 29.82 in South 3.0 mph 4.0 mph 98 % 0.00 in
07:07 63.1 °F 62.2 °F 29.82 in Calm   5.0 mph 97 % 0.00 in
07:12 63.1 °F 62.2 °F 29.83 in Calm   5.0 mph 97 % 0.00 in
07:22 63.1 °F 62.2 °F 29.82 in SE 1.0 mph 1.0 mph 97 % 0.00 in
07:27 63.3 °F 62.4 °F 29.82 in ESE 1.0 mph 1.0 mph 97 % 0.00 in
07:32 63.3 °F 62.4 °F 29.82 in Calm   2.0 mph 97 % 0.00 in
07:37 63.3 °F 62.4 °F 29.82 in Calm   2.0 mph 97 % 0.00 in
07:42 63.5 °F 62.6 °F 29.82 in Calm   2.0 mph 97 % 0.00 in
07:47 63.5 °F 62.6 °F 29.82 in Calm   2.0 mph 97 % 0.00 in
07:52 63.7 °F 62.8 °F 29.82 in SE 1.0 mph 2.0 mph 97 % 0.00 in
07:57 63.7 °F 62.8 °F 29.83 in Calm   2.0 mph 97 % 0.00 in
08:02 63.9 °F 63.0 °F 29.83 in Calm   1.0 mph 97 % 0.00 in
08:07 63.9 °F 63.0 °F 29.83 in Calm   1.0 mph 97 % 0.00 in
08:12 64.0 °F 63.1 °F 29.83 in Calm   1.0 mph 97 % 0.00 in
08:17 64.2 °F 63.3 °F 29.83 in ESE 1.0 mph 2.0 mph 97 % 0.00 in
08:22 64.6 °F 63.7 °F 29.83 in SE 1.0 mph 3.0 mph 97 % 0.00 in
08:27 65.1 °F 64.6 °F 29.83 in SE 2.0 mph 3.0 mph 98 % 0.00 in
08:32 65.5 °F 64.6 °F 29.83 in SSE 1.0 mph 3.0 mph 97 % 0.00 in
08:37 65.5 °F 64.2 °F 29.83 in East 1.0 mph 4.0 mph 96 % 0.00 in
08:42 65.8 °F 64.6 °F 29.83 in East 2.0 mph 4.0 mph 96 % 0.00 in
08:47 65.8 °F 64.6 °F 29.83 in SE 1.0 mph 4.0 mph 96 % 0.00 in
08:53 65.8 °F 64.6 °F 29.83 in ESE 1.0 mph 4.0 mph 96 % 0.00 in
08:58 66.0 °F 64.8 °F 29.84 in NE 2.0 mph 4.0 mph 96 % 0.00 in
09:03 66.4 °F 64.9 °F 29.84 in SSE 2.0 mph 4.0 mph 95 % 0.00 in
09:08 66.6 °F 65.1 °F 29.84 in SE 3.0 mph 5.0 mph 95 % 0.00 in
09:13 66.7 °F 64.9 °F 29.84 in SSE 5.0 mph 7.0 mph 94 % 0.00 in
09:18 67.3 °F 65.5 °F 29.84 in South 6.0 mph 7.0 mph 94 % 0.00 in
09:23 67.6 °F 65.5 °F 29.84 in SE 5.0 mph 9.0 mph 93 % 0.00 in
09:28 67.8 °F 65.7 °F 29.84 in South 1.0 mph 9.0 mph 93 % 0.00 in
09:33 68.2 °F 65.8 °F 29.84 in SSW 5.0 mph 9.0 mph 92 % 0.00 in
09:38 68.5 °F 65.8 °F 29.85 in SSE 2.0 mph 8.0 mph 91 % 0.00 in
09:43 69.1 °F 66.7 °F 29.85 in SSW 2.0 mph 8.0 mph 92 % 0.00 in
09:48 69.4 °F 66.4 °F 29.85 in SSW 4.0 mph 8.0 mph 90 % 0.00 in
09:53 69.4 °F 66.0 °F 29.85 in South 3.0 mph 9.0 mph 89 % 0.00 in
09:58 69.6 °F 66.2 °F 29.85 in SSW 7.0 mph 9.0 mph 89 % 0.00 in
10:03 70.0 °F 66.6 °F 29.85 in South 5.0 mph 9.0 mph 89 % 0.00 in
10:08 70.3 °F 66.6 °F 29.85 in SE 5.0 mph 9.0 mph 88 % 0.00 in
10:13 70.3 °F 66.6 °F 29.85 in SSE 4.0 mph 9.0 mph 88 % 0.00 in
10:18 70.3 °F 66.6 °F 29.85 in SE 4.0 mph 9.0 mph 88 % 0.00 in
10:23 70.9 °F 67.1 °F 29.85 in SW 6.0 mph 9.0 mph 88 % 0.00 in
10:28 71.1 °F 66.9 °F 29.85 in South 5.0 mph 9.0 mph 87 % 0.00 in
10:33 71.2 °F 66.9 °F 29.85 in South 6.0 mph 8.0 mph 86 % 0.00 in
10:38 71.4 °F 67.1 °F 29.85 in SSE 6.0 mph 11.0 mph 86 % 0.00 in
10:43 72.3 °F 67.8 °F 29.85 in South 2.0 mph 11.0 mph 86 % 0.00 in
10:48 72.9 °F 68.0 °F 29.85 in SSW 7.0 mph 11.0 mph 85 % 0.00 in
10:53 73.2 °F 67.8 °F 29.85 in South 6.0 mph 9.0 mph 83 % 0.00 in
10:55 73.6 °F 68.2 °F 29.85 in South 3.0 mph 8.0 mph 83 % 0.00 in
10:56 73.6 °F 68.2 °F 29.85 in SE 3.0 mph 8.0 mph 83 % 0.00 in
10:57 73.6 °F 68.2 °F 29.85 in SE 2.0 mph 8.0 mph 83 % 0.00 in
11:02 73.9 °F 68.2 °F 29.85 in SSE 4.0 mph 8.0 mph 82 % 0.00 in
11:07 74.1 °F 68.2 °F 29.85 in SW 1.0 mph 8.0 mph 82 % 0.00 in
11:12 75.0 °F 69.1 °F 29.85 in South 4.0 mph 8.0 mph 82 % 0.00 in
11:17 75.4 °F 68.0 °F 29.84 in SE 4.0 mph 8.0 mph 78 % 0.00 in
11:22 75.6 °F 68.2 °F 29.84 in South 2.0 mph 10.0 mph 78 % 0.00 in
11:27 76.5 °F 68.4 °F 29.84 in SSW 9.0 mph 10.0 mph 76 % 0.00 in
11:32 77.2 °F 69.4 °F 29.84 in SW 4.0 mph 10.0 mph 77 % 0.00 in
11:37 77.4 °F 68.0 °F 29.84 in SE 6.0 mph 10.0 mph 73 % 0.00 in
11:42 77.2 °F 67.8 °F 29.83 in SE 6.0 mph 10.0 mph 73 % 0.00 in
11:47 77.2 °F 69.1 °F 29.83 in ESE 5.0 mph 10.0 mph 76 % 0.00 in
11:52 77.4 °F 68.0 °F 29.83 in SE 2.0 mph 9.0 mph 73 % 0.00 in
11:57 77.4 °F 67.6 °F 29.83 in SE 6.0 mph 9.0 mph 72 % 0.00 in
12:02 77.4 °F 67.6 °F 29.83 in SW 3.0 mph 10.0 mph 72 % 0.00 in
12:07 78.1 °F 67.1 °F 29.83 in SSE 4.0 mph 10.0 mph 69 % 0.00 in
12:12 78.4 °F 66.9 °F 29.83 in SE 2.0 mph 10.0 mph 68 % 0.00 in
12:17 79.0 °F 68.4 °F 29.82 in South 4.0 mph 10.0 mph 70 % 0.00 in
12:22 79.2 °F 67.3 °F 29.82 in SSW 3.0 mph 11.0 mph 67 % 0.00 in
12:27 79.3 °F 66.9 °F 29.82 in South 8.0 mph 11.0 mph 66 % 0.00 in
12:32 79.2 °F 66.7 °F 29.82 in WNW 1.0 mph 11.0 mph 66 % 0.00 in
12:37 79.7 °F 68.2 °F 29.81 in SE 3.0 mph 11.0 mph 68 % 0.00 in
12:42 79.9 °F 68.0 °F 29.81 in South 6.0 mph 11.0 mph 67 % 0.00 in
12:47 79.5 °F 66.2 °F 29.81 in SSE 5.0 mph 12.0 mph 64 % 0.00 in
12:52 79.7 °F 66.9 °F 29.81 in SSE 2.0 mph 12.0 mph 65 % 0.00 in
12:57 80.1 °F 67.3 °F 29.80 in SW 8.0 mph 12.0 mph 65 % 0.00 in
13:02 80.1 °F 66.7 °F 29.80 in SE 9.0 mph 10.0 mph 64 % 0.00 in
13:07 80.1 °F 66.4 °F 29.80 in SSE 1.0 mph 10.0 mph 63 % 0.00 in
13:12 80.6 °F 67.8 °F 29.79 in SW 4.0 mph 10.0 mph 65 % 0.00 in
13:17 80.8 °F 66.6 °F 29.79 in South 6.0 mph 10.0 mph 62 % 0.00 in
13:22 80.8 °F 66.6 °F 29.79 in SSW 3.0 mph 9.0 mph 62 % 0.00 in
13:27 81.0 °F 66.2 °F 29.79 in SE 5.0 mph 9.0 mph 61 % 0.00 in
13:32 81.0 °F 65.8 °F 29.78 in SW 4.0 mph 10.0 mph 60 % 0.00 in
13:37 81.0 °F 66.2 °F 29.78 in SE 5.0 mph 10.0 mph 61 % 0.00 in
13:42 81.1 °F 66.0 °F 29.78 in SSW 3.0 mph 10.0 mph 60 % 0.00 in
13:47 82.0 °F 66.4 °F 29.78 in SSW 4.0 mph 9.0 mph 59 % 0.00 in
13:52 82.0 °F 66.7 °F 29.78 in South 6.0 mph 10.0 mph 60 % 0.00 in
13:57 81.7 °F 64.9 °F 29.78 in WSW 4.0 mph 10.0 mph 57 % 0.00 in
14:02 82.0 °F 65.3 °F 29.77 in SSW 2.0 mph 10.0 mph 57 % 0.00 in
14:07 82.0 °F 64.8 °F 29.77 in SSE 6.0 mph 10.0 mph 56 % 0.00 in
14:12 81.9 °F 64.6 °F 29.77 in SE 7.0 mph 10.0 mph 56 % 0.00 in
14:17 81.9 °F 64.6 °F 29.77 in SSE 5.0 mph 10.0 mph 56 % 0.00 in
14:22 81.9 °F 65.7 °F 29.77 in SSE 4.0 mph 10.0 mph 58 % 0.00 in
14:27 82.2 °F 66.9 °F 29.77 in SSE 5.0 mph 10.0 mph 60 % 0.00 in
14:32 82.2 °F 64.4 °F 29.77 in SSE 7.0 mph 10.0 mph 55 % 0.00 in
14:38 82.2 °F 64.9 °F 29.76 in WSW 5.0 mph 11.0 mph 56 % 0.00 in
14:43 82.6 °F 65.8 °F 29.76 in SSW 4.0 mph 11.0 mph 57 % 0.00 in
14:48 82.6 °F 64.8 °F 29.76 in South 5.0 mph 11.0 mph 55 % 0.00 in
14:53 82.6 °F 65.8 °F 29.77 in ESE 9.0 mph 11.0 mph 57 % 0.00 in
14:58 82.8 °F 66.0 °F 29.76 in SSE 3.0 mph 12.0 mph 57 % 0.00 in
15:03 82.8 °F 64.9 °F 29.76 in SW 9.0 mph 12.0 mph 55 % 0.00 in
15:13 82.6 °F 64.8 °F 29.76 in South 3.0 mph 13.0 mph 55 % 0.00 in
15:18 82.6 °F 64.8 °F 29.76 in South 10.0 mph 13.0 mph 55 % 0.00 in
15:23 82.4 °F 64.6 °F 29.76 in SSW 9.0 mph 13.0 mph 55 % 0.00 in
15:28 82.4 °F 65.7 °F 29.76 in SSE 5.0 mph 12.0 mph 57 % 0.00 in
15:33 82.6 °F 65.8 °F 29.76 in SSE 7.0 mph 12.0 mph 57 % 0.00 in
15:38 82.8 °F 64.9 °F 29.76 in SSW 7.0 mph 11.0 mph 55 % 0.00 in
15:43 82.4 °F 64.6 °F 29.76 in SSE 7.0 mph 12.0 mph 55 % 0.00 in
15:48 82.2 °F 64.4 °F 29.76 in SSE 3.0 mph 14.0 mph 55 % 0.00 in
15:53 82.2 °F 63.9 °F 29.76 in SSW 5.0 mph 14.0 mph 54 % 0.00 in
15:58 82.2 °F 64.4 °F 29.76 in South 5.0 mph 16.0 mph 55 % 0.00 in
16:03 82.2 °F 63.9 °F 29.75 in South 5.0 mph 16.0 mph 54 % 0.00 in
16:08 82.2 °F 63.9 °F 29.75 in SSE 5.0 mph 16.0 mph 54 % 0.00 in
16:13 82.2 °F 63.9 °F 29.76 in South 4.0 mph 14.0 mph 54 % 0.00 in
16:18 82.6 °F 64.2 °F 29.75 in SSW 2.0 mph 13.0 mph 54 % 0.00 in
16:23 82.4 °F 64.6 °F 29.75 in South 4.0 mph 11.0 mph 55 % 0.00 in
16:29 82.2 °F 63.9 °F 29.75 in South 5.0 mph 10.0 mph 54 % 0.00 in
16:34 82.2 °F 63.9 °F 29.75 in South 3.0 mph 10.0 mph 54 % 0.00 in
16:39 82.0 °F 62.6 °F 29.75 in South 7.0 mph 10.0 mph 52 % 0.00 in
16:44 82.2 °F 62.2 °F 29.75 in SSE 3.0 mph 12.0 mph 51 % 0.00 in
16:49 82.2 °F 61.7 °F 29.76 in SSW 6.0 mph 12.0 mph 50 % 0.00 in
16:54 82.0 °F 62.6 °F 29.76 in SSW 2.0 mph 12.0 mph 52 % 0.00 in
16:59 82.2 °F 62.2 °F 29.76 in SSW 4.0 mph 10.0 mph 51 % 0.00 in
17:04 82.0 °F 62.1 °F 29.76 in South 5.0 mph 10.0 mph 51 % 0.00 in
17:09 81.9 °F 63.0 °F 29.76 in SE 6.0 mph 9.0 mph 53 % 0.00 in
17:14 81.9 °F 63.5 °F 29.76 in South 2.0 mph 9.0 mph 54 % 0.00 in
17:19 81.7 °F 63.0 °F 29.76 in SE 4.0 mph 9.0 mph 53 % 0.00 in
17:24 81.1 °F 61.9 °F 29.76 in SSW 5.0 mph 9.0 mph 52 % 0.00 in
17:29 81.0 °F 61.2 °F 29.76 in SSW 2.0 mph 9.0 mph 51 % 0.00 in
17:34 81.0 °F 60.1 °F 29.76 in SSW 5.0 mph 9.0 mph 49 % 0.00 in
17:39 80.8 °F 60.4 °F 29.77 in SSE 2.0 mph 9.0 mph 50 % 0.00 in
17:44 80.4 °F 60.1 °F 29.77 in SSW 5.0 mph 7.0 mph 50 % 0.00 in
17:49 80.2 °F 60.4 °F 29.77 in South 2.0 mph 7.0 mph 51 % 0.00 in
17:54 79.9 °F 60.6 °F 29.77 in South 1.0 mph 7.0 mph 52 % 0.00 in
17:59 79.5 °F 60.4 °F 29.77 in SSE 1.0 mph 6.0 mph 52 % 0.00 in
18:04 79.2 °F 60.6 °F 29.77 in South 1.0 mph 5.0 mph 53 % 0.00 in
18:09 79.0 °F 61.0 °F 29.77 in Calm   3.0 mph 54 % 0.00 in
18:14 78.4 °F 61.0 °F 29.77 in SE 3.0 mph 3.0 mph 55 % 0.00 in
18:19 78.3 °F 61.3 °F 29.77 in SSW 1.0 mph 3.0 mph 56 % 0.00 in
18:25 77.9 °F 61.5 °F 29.77 in SE 1.0 mph 3.0 mph 57 % 0.00 in
18:30 77.5 °F 61.2 °F 29.77 in SE 1.0 mph 3.0 mph 57 % 0.00 in
18:35 77.5 °F 61.2 °F 29.77 in SE 2.0 mph 3.0 mph 57 % 0.00 in
18:40 77.5 °F 60.6 °F 29.77 in ESE 2.0 mph 3.0 mph 56 % 0.00 in
18:45 77.5 °F 60.6 °F 29.77 in Calm   3.0 mph 56 % 0.00 in
18:50 77.2 °F 59.7 °F 29.77 in ESE 1.0 mph 3.0 mph 55 % 0.00 in
18:55 77.0 °F 59.5 °F 29.77 in ESE 2.0 mph 3.0 mph 55 % 0.00 in
19:00 76.6 °F 59.2 °F 29.77 in ESE 1.0 mph 3.0 mph 55 % 0.00 in
19:05 76.1 °F 59.2 °F 29.77 in SE 3.0 mph 4.0 mph 56 % 0.00 in
19:10 76.3 °F 59.4 °F 29.78 in SE 4.0 mph 5.0 mph 56 % 0.00 in
19:15 76.3 °F 59.9 °F 29.78 in ESE 3.0 mph 6.0 mph 57 % 0.00 in
19:20 76.3 °F 61.0 °F 29.78 in SE 3.0 mph 8.0 mph 59 % 0.00 in
19:25 76.3 °F 61.3 °F 29.79 in SSE 4.0 mph 8.0 mph 60 % 0.00 in
19:30 75.9 °F 61.5 °F 29.79 in ESE 2.0 mph 8.0 mph 61 % 0.00 in
19:35 75.4 °F 61.5 °F 29.79 in SE 2.0 mph 5.0 mph 62 % 0.00 in
19:40 74.8 °F 62.2 °F 29.80 in ESE 3.0 mph 5.0 mph 65 % 0.00 in
19:45 74.8 °F 65.1 °F 29.80 in SE 7.0 mph 14.0 mph 72 % 0.00 in
19:50 74.5 °F 67.1 °F 29.80 in SE 6.0 mph 14.0 mph 78 % 0.00 in
19:55 73.8 °F 67.6 °F 29.81 in South 7.0 mph 14.0 mph 81 % 0.00 in
20:00 72.9 °F 67.8 °F 29.81 in SE 7.0 mph 14.0 mph 84 % 0.00 in
20:05 72.1 °F 67.6 °F 29.81 in ESE 6.0 mph 12.0 mph 86 % 0.00 in
20:10 71.6 °F 67.5 °F 29.81 in SSE 7.0 mph 14.0 mph 87 % 0.00 in
20:15 71.1 °F 67.3 °F 29.81 in ESE 11.0 mph 14.0 mph 88 % 0.00 in
20:21 70.9 °F 67.1 °F 29.81 in SSE 3.0 mph 14.0 mph 88 % 0.00 in
20:26 70.7 °F 67.3 °F 29.81 in SSE 6.0 mph 12.0 mph 89 % 0.00 in
20:36 70.3 °F 66.9 °F 29.82 in SSW 5.0 mph 10.0 mph 89 % 0.00 in
20:42 70.2 °F 66.7 °F 29.82 in ESE 7.0 mph 9.0 mph 89 % 0.00 in
20:52 70.0 °F 66.6 °F 29.82 in SE 5.0 mph 12.0 mph 89 % 0.00 in
20:57 69.8 °F 66.4 °F 29.83 in South 5.0 mph 12.0 mph 89 % 0.00 in
21:02 69.6 °F 66.2 °F 29.83 in SE 7.0 mph 11.0 mph 89 % 0.00 in
21:07 69.6 °F 66.2 °F 29.83 in SE 3.0 mph 11.0 mph 89 % 0.00 in
21:12 69.6 °F 66.2 °F 29.83 in SSW 3.0 mph 11.0 mph 89 % 0.00 in
21:17 69.6 °F 66.2 °F 29.83 in East 6.0 mph 11.0 mph 89 % 0.00 in
21:22 69.6 °F 66.2 °F 29.84 in South 3.0 mph 8.0 mph 89 % 0.00 in
21:27 69.8 °F 66.4 °F 29.84 in ESE 4.0 mph 8.0 mph 89 % 0.00 in
21:32 70.0 °F 66.6 °F 29.84 in ESE 7.0 mph 10.0 mph 89 % 0.00 in
21:37 70.0 °F 66.6 °F 29.84 in SE 3.0 mph 10.0 mph 89 % 0.00 in
21:42 70.0 °F 66.6 °F 29.84 in SE 3.0 mph 10.0 mph 89 % 0.00 in
21:47 70.0 °F 66.6 °F 29.83 in East 5.0 mph 9.0 mph 89 % 0.00 in
21:52 69.8 °F 66.4 °F 29.83 in SSE 2.0 mph 9.0 mph 89 % 0.00 in
21:57 69.6 °F 66.2 °F 29.83 in SE 3.0 mph 9.0 mph 89 % 0.00 in
22:02 69.6 °F 66.2 °F 29.84 in SE 3.0 mph 8.0 mph 89 % 0.00 in
22:07 69.6 °F 66.6 °F 29.84 in ESE 2.0 mph 8.0 mph 90 % 0.00 in
22:12 69.6 °F 66.6 °F 29.84 in ESE 4.0 mph 8.0 mph 90 % 0.00 in
22:17 69.6 °F 66.6 °F 29.83 in East 3.0 mph 8.0 mph 90 % 0.00 in
22:22 69.6 °F 66.6 °F 29.83 in ESE 2.0 mph 7.0 mph 90 % 0.00 in
22:28 69.4 °F 66.4 °F 29.83 in SSE 3.0 mph 7.0 mph 90 % 0.00 in
22:33 69.4 °F 66.4 °F 29.83 in ENE 2.0 mph 6.0 mph 90 % 0.00 in
22:38 69.4 °F 66.4 °F 29.83 in ESE 2.0 mph 7.0 mph 90 % 0.00 in
22:43 69.3 °F 66.2 °F 29.83 in ESE 3.0 mph 7.0 mph 90 % 0.00 in
22:48 69.1 °F 66.4 °F 29.83 in ESE 3.0 mph 7.0 mph 91 % 0.00 in
22:53 68.9 °F 66.6 °F 29.84 in ESE 1.0 mph 4.0 mph 92 % 0.00 in
22:58 68.7 °F 66.4 °F 29.84 in ESE 4.0 mph 4.0 mph 92 % 0.00 in
23:03 68.7 °F 66.6 °F 29.84 in ESE 5.0 mph 5.0 mph 93 % 0.00 in
23:08 68.7 °F 66.6 °F 29.84 in NNE 1.0 mph 6.0 mph 93 % 0.00 in
23:13 68.5 °F 66.4 °F 29.84 in ESE 3.0 mph 6.0 mph 93 % 0.00 in
23:19 68.5 °F 66.7 °F 29.84 in SSE 1.0 mph 6.0 mph 94 % 0.00 in
23:24 68.5 °F 66.7 °F 29.85 in ESE 1.0 mph 5.0 mph 94 % 0.00 in
23:29 68.5 °F 66.7 °F 29.85 in SSE 2.0 mph 5.0 mph 94 % 0.00 in
23:34 68.5 °F 66.7 °F 29.86 in ESE 2.0 mph 4.0 mph 94 % 0.00 in
23:39 68.5 °F 66.7 °F 29.86 in ESE 2.0 mph 4.0 mph 94 % 0.00 in
23:44 68.5 °F 67.1 °F 29.86 in ESE 3.0 mph 5.0 mph 95 % 0.00 in
23:49 68.5 °F 67.1 °F 29.86 in SSE 1.0 mph 5.0 mph 95 % 0.00 in
23:54 68.5 °F 67.1 °F 29.86 in ESE 4.0 mph 5.0 mph 95 % 0.00 in
23:59 68.7 °F 67.3 °F 29.86 in SE 3.0 mph 4.0 mph 95 % 0.00 in
Spring, Texas: Villages of Bridgestone
Compliments of Weather Underground - 2.75 mb

Script developed by  Jim McMurry - jmcmurry@mwt.net Adapted for the template by  Wim van der Kuil - Leuven-Template.eu

You find our weather info also at:

UK Metoffice

WeatherCloud

Weather Underground

Mid-South Weather Network

AWEKAS

Citizen Weather Observer Program (CWOP)

HAMweather, WeatherForYou, PWS Weather

Equipment we use:

Weather-station
Davis Vantage Vue

Weather-program
Meteohub

Weather-server
Debian 7.9 x86 (Guest)

Provider
DreamHost

Davis Vantage Vue

Meteohub

Debian 7.9 x86 (Guest)

DreamHost